LAN1988 LPMA-LPPR
Flight info
| Callsign | LAN1988 |
|---|---|
| Flight time | 1h 30m |
| Altitude | 38000 |
| Route | DEGUN DCT VABEM DCT ASMAR DCT DIRMA DCT ASMOV |
| Aircraft | A320/M-SDE3FGHIRWY/LB1 |
Departure
| Time | 2026-05-04 15:17 |
|---|---|
| Airport | Cristiano Ronaldo International Airport (LPMA) |
Arrival
| Time | 2026-05-04 16:48 |
|---|---|
| Airport | Francisco de Sá Carneiro Airport (LPPR) |
| Time | Latitude | Longitude | Altitude | Speed | Heading |
|---|---|---|---|---|---|
| 2026-05-04 14:53 | 32.69611 | -16.77318 | 177 ft | 0 kts | 137° |
| 2026-05-04 15:10 | 32.69631 | -16.77346 | 176 ft | 4 kts | 115° |
| 2026-05-04 15:10 | 32.69638 | -16.77376 | 176 ft | 4 kts | 93° |
| 2026-05-04 15:10 | 32.69627 | -16.77437 | 176 ft | 4 kts | 59° |
| 2026-05-04 15:11 | 32.69614 | -16.77458 | 176 ft | 0 kts | 46° |
| 2026-05-04 15:13 | 32.69618 | -16.77451 | 176 ft | 4 kts | 53° |
| 2026-05-04 15:14 | 32.69652 | -16.77408 | 176 ft | 11 kts | 45° |
| 2026-05-04 15:14 | 32.69720 | -16.77325 | 176 ft | 16 kts | 46° |
| 2026-05-04 15:14 | 32.69763 | -16.77272 | 176 ft | 9 kts | 46° |
| 2026-05-04 15:14 | 32.69811 | -16.77214 | 176 ft | 15 kts | 45° |
| 2026-05-04 15:15 | 32.69921 | -16.77182 | 176 ft | 18 kts | 355° |
| 2026-05-04 15:15 | 32.70019 | -16.77171 | 176 ft | 14 kts | 28° |
| 2026-05-04 15:15 | 32.70123 | -16.77055 | 176 ft | 26 kts | 44° |
| 2026-05-04 15:16 | 32.70463 | -16.76656 | 176 ft | 37 kts | 44° |
| 2026-05-04 15:16 | 32.70606 | -16.76498 | 176 ft | 13 kts | 25° |
| 2026-05-04 15:16 | 32.70653 | -16.76429 | 176 ft | 7 kts | 214° |
| 2026-05-04 15:17 | 32.70557 | -16.76548 | 176 ft | 53 kts | 224° |
| 2026-05-04 15:17 | 32.69263 | -16.78050 | 631 ft | 171 kts | 223° |
| 2026-05-04 15:17 | 32.68243 | -16.78798 | 1580 ft | 177 kts | 198° |
| 2026-05-04 15:18 | 32.66977 | -16.78990 | 2068 ft | 191 kts | 173° |
| 2026-05-04 15:18 | 32.65594 | -16.78765 | 2448 ft | 209 kts | 171° |
| 2026-05-04 15:18 | 32.64105 | -16.78504 | 2901 ft | 226 kts | 170° |
| 2026-05-04 15:19 | 32.60874 | -16.77301 | 4103 ft | 261 kts | 135° |
| 2026-05-04 15:19 | 32.60011 | -16.75420 | 4979 ft | 267 kts | 100° |
| 2026-05-04 15:19 | 32.61064 | -16.71215 | 6793 ft | 281 kts | 48° |
| 2026-05-04 15:20 | 32.62597 | -16.69765 | 7699 ft | 284 kts | 33° |
| 2026-05-04 15:20 | 32.64263 | -16.68473 | 8598 ft | 288 kts | 32° |
| 2026-05-04 15:20 | 32.65961 | -16.67170 | 9466 ft | 293 kts | 32° |
| 2026-05-04 15:20 | 32.67690 | -16.65845 | 10285 ft | 299 kts | 32° |
| 2026-05-04 15:21 | 32.69497 | -16.64458 | 10726 ft | 320 kts | 32° |
| 2026-05-04 15:21 | 32.71430 | -16.62970 | 11040 ft | 343 kts | 31° |
| 2026-05-04 15:21 | 32.75710 | -16.59663 | 11417 ft | 390 kts | 32° |
| 2026-05-04 15:22 | 32.78020 | -16.57870 | 11852 ft | 401 kts | 32° |
| 2026-05-04 15:22 | 32.80373 | -16.56040 | 12476 ft | 407 kts | 32° |
| 2026-05-04 15:22 | 32.85138 | -16.52334 | 13747 ft | 415 kts | 32° |
| 2026-05-04 15:23 | 32.87565 | -16.50445 | 14389 ft | 418 kts | 31° |
| 2026-05-04 15:23 | 32.90014 | -16.48540 | 14961 ft | 423 kts | 31° |
| 2026-05-04 15:23 | 32.92490 | -16.46616 | 15514 ft | 427 kts | 31° |
| 2026-05-04 15:23 | 32.94990 | -16.44669 | 16054 ft | 432 kts | 31° |
| 2026-05-04 15:24 | 33.00059 | -16.40708 | 17114 ft | 439 kts | 31° |
| 2026-05-04 15:24 | 33.05137 | -16.36742 | 18899 ft | 422 kts | 31° |
| 2026-05-04 15:25 | 33.07557 | -16.34851 | 19988 ft | 413 kts | 31° |
| 2026-05-04 15:25 | 33.09958 | -16.32973 | 20653 ft | 413 kts | 31° |
| 2026-05-04 15:25 | 33.12371 | -16.31084 | 21192 ft | 417 kts | 31° |
| 2026-05-04 15:26 | 33.17259 | -16.27250 | 22193 ft | 424 kts | 31° |
| 2026-05-04 15:26 | 33.19734 | -16.25302 | 22684 ft | 427 kts | 31° |
| 2026-05-04 15:26 | 33.24748 | -16.21365 | 23604 ft | 434 kts | 30° |
| 2026-05-04 15:27 | 33.27287 | -16.19373 | 24055 ft | 438 kts | 30° |
| 2026-05-04 15:27 | 33.32413 | -16.15346 | 24917 ft | 444 kts | 30° |
| 2026-05-04 15:28 | 33.37604 | -16.11251 | 25743 ft | 450 kts | 30° |
| 2026-05-04 15:28 | 33.40221 | -16.09181 | 26123 ft | 453 kts | 30° |
| 2026-05-04 15:28 | 33.45518 | -16.04988 | 26881 ft | 459 kts | 30° |
| 2026-05-04 15:29 | 33.48154 | -16.02904 | 27235 ft | 462 kts | 30° |
| 2026-05-04 15:30 | 33.59002 | -15.94312 | 28662 ft | 473 kts | 30° |
| 2026-05-04 15:30 | 33.67299 | -15.87718 | 29598 ft | 480 kts | 30° |
| 2026-05-04 15:31 | 33.72900 | -15.83263 | 30166 ft | 485 kts | 30° |
| 2026-05-04 15:31 | 33.75725 | -15.81015 | 30455 ft | 487 kts | 30° |
| 2026-05-04 15:32 | 33.84229 | -15.74227 | 31462 ft | 488 kts | 30° |
| 2026-05-04 15:32 | 33.89867 | -15.69716 | 32250 ft | 486 kts | 30° |
| 2026-05-04 15:33 | 33.95482 | -15.65221 | 32681 ft | 492 kts | 30° |
| 2026-05-04 15:34 | 34.04016 | -15.58372 | 33724 ft | 487 kts | 30° |
| 2026-05-04 15:34 | 34.06833 | -15.56103 | 34115 ft | 485 kts | 30° |
| 2026-05-04 15:34 | 34.12440 | -15.51586 | 34717 ft | 485 kts | 30° |
| 2026-05-04 15:35 | 34.18074 | -15.47037 | 35208 ft | 487 kts | 30° |
| 2026-05-04 15:35 | 34.20894 | -15.44762 | 35447 ft | 488 kts | 30° |
| 2026-05-04 15:35 | 34.23722 | -15.42478 | 35674 ft | 489 kts | 30° |
| 2026-05-04 15:36 | 34.29399 | -15.37889 | 36110 ft | 491 kts | 30° |
| 2026-05-04 15:36 | 34.32208 | -15.35608 | 36329 ft | 492 kts | 30° |
| 2026-05-04 15:36 | 34.35058 | -15.33292 | 36525 ft | 493 kts | 30° |
| 2026-05-04 15:37 | 34.37900 | -15.30985 | 36844 ft | 491 kts | 30° |
| 2026-05-04 15:37 | 34.40728 | -15.28694 | 37216 ft | 487 kts | 30° |
| 2026-05-04 15:37 | 34.43536 | -15.26414 | 37535 ft | 485 kts | 30° |
| 2026-05-04 15:37 | 34.46342 | -15.24132 | 37672 ft | 487 kts | 30° |
| 2026-05-04 15:38 | 34.49161 | -15.21838 | 37797 ft | 489 kts | 30° |
| 2026-05-04 15:38 | 34.51992 | -15.19537 | 37933 ft | 490 kts | 30° |
| 2026-05-04 15:38 | 34.54824 | -15.17228 | 38082 ft | 492 kts | 30° |
| 2026-05-04 15:38 | 34.57663 | -15.14908 | 38111 ft | 493 kts | 30° |
| 2026-05-04 15:39 | 34.63355 | -15.10248 | 38109 ft | 493 kts | 30° |
| 2026-05-04 15:40 | 34.71897 | -15.03263 | 38108 ft | 493 kts | 30° |
| 2026-05-04 15:40 | 34.77584 | -14.98599 | 38109 ft | 493 kts | 30° |
| 2026-05-04 15:41 | 34.83275 | -14.93910 | 38111 ft | 493 kts | 30° |
| 2026-05-04 15:41 | 34.88950 | -14.89234 | 38114 ft | 492 kts | 30° |
| 2026-05-04 15:42 | 34.94623 | -14.84562 | 38113 ft | 492 kts | 30° |
| 2026-05-04 15:42 | 35.00290 | -14.79879 | 38116 ft | 492 kts | 30° |
| 2026-05-04 15:43 | 35.05919 | -14.75218 | 38116 ft | 492 kts | 30° |
| 2026-05-04 15:43 | 35.11591 | -14.70515 | 38117 ft | 492 kts | 30° |
| 2026-05-04 15:44 | 35.17258 | -14.65810 | 38117 ft | 492 kts | 30° |
| 2026-05-04 15:44 | 35.22931 | -14.61092 | 38120 ft | 492 kts | 30° |
| 2026-05-04 15:45 | 35.28585 | -14.56383 | 38120 ft | 491 kts | 29° |
| 2026-05-04 15:45 | 35.34237 | -14.51670 | 38120 ft | 491 kts | 30° |
| 2026-05-04 15:46 | 35.39849 | -14.46975 | 38120 ft | 491 kts | 30° |
| 2026-05-04 15:46 | 35.45485 | -14.42245 | 38120 ft | 490 kts | 29° |
| 2026-05-04 15:47 | 35.51117 | -14.37520 | 38124 ft | 490 kts | 29° |
| 2026-05-04 15:47 | 35.56741 | -14.32806 | 38125 ft | 489 kts | 29° |
| 2026-05-04 15:48 | 35.62336 | -14.28096 | 38120 ft | 489 kts | 29° |
| 2026-05-04 15:48 | 35.70749 | -14.20982 | 38119 ft | 489 kts | 29° |
| 2026-05-04 15:49 | 35.76358 | -14.16238 | 38117 ft | 489 kts | 29° |
| 2026-05-04 15:49 | 35.81027 | -14.12292 | 38116 ft | 489 kts | 29° |
| 2026-05-04 15:50 | 35.86637 | -14.07531 | 38120 ft | 489 kts | 29° |
| 2026-05-04 15:50 | 35.92239 | -14.02774 | 38118 ft | 489 kts | 29° |
| 2026-05-04 15:51 | 35.97843 | -13.97999 | 38120 ft | 489 kts | 29° |
| 2026-05-04 15:51 | 36.03404 | -13.93247 | 38120 ft | 489 kts | 29° |
| 2026-05-04 15:52 | 36.09001 | -13.88466 | 38121 ft | 489 kts | 29° |
| 2026-05-04 15:52 | 36.14604 | -13.83672 | 38122 ft | 489 kts | 29° |
| 2026-05-04 15:53 | 36.20201 | -13.78884 | 38122 ft | 489 kts | 29° |
| 2026-05-04 15:53 | 36.25796 | -13.74083 | 38122 ft | 489 kts | 29° |
| 2026-05-04 15:54 | 36.31376 | -13.69274 | 38122 ft | 488 kts | 29° |
| 2026-05-04 15:54 | 36.36916 | -13.64487 | 38123 ft | 488 kts | 29° |
| 2026-05-04 15:55 | 36.42487 | -13.59673 | 38123 ft | 488 kts | 29° |
| 2026-05-04 15:55 | 36.48061 | -13.54860 | 38124 ft | 488 kts | 29° |
| 2026-05-04 15:56 | 36.53631 | -13.50052 | 38121 ft | 487 kts | 29° |
| 2026-05-04 15:56 | 36.59189 | -13.45229 | 38122 ft | 487 kts | 29° |
| 2026-05-04 15:57 | 36.64733 | -13.40395 | 38124 ft | 486 kts | 29° |
| 2026-05-04 15:57 | 36.70273 | -13.35566 | 38124 ft | 486 kts | 29° |
| 2026-05-04 15:58 | 36.75810 | -13.30733 | 38126 ft | 485 kts | 29° |
| 2026-05-04 15:58 | 36.81331 | -13.25900 | 38124 ft | 484 kts | 29° |
| 2026-05-04 15:59 | 36.86859 | -13.21068 | 38124 ft | 484 kts | 29° |
| 2026-05-04 15:59 | 36.92372 | -13.16246 | 38121 ft | 484 kts | 29° |
| 2026-05-04 16:00 | 36.97876 | -13.11411 | 38122 ft | 483 kts | 29° |
| 2026-05-04 16:00 | 37.03372 | -13.06561 | 38124 ft | 483 kts | 29° |
| 2026-05-04 16:01 | 37.08868 | -13.01713 | 38130 ft | 483 kts | 29° |
| 2026-05-04 16:01 | 37.14355 | -12.96855 | 38131 ft | 483 kts | 29° |
| 2026-05-04 16:02 | 37.19806 | -12.92028 | 38125 ft | 482 kts | 29° |
| 2026-05-04 16:03 | 37.28039 | -12.84734 | 38101 ft | 484 kts | 29° |
| 2026-05-04 16:03 | 37.33545 | -12.79841 | 38097 ft | 485 kts | 29° |
| 2026-05-04 16:04 | 37.39055 | -12.74923 | 38094 ft | 486 kts | 29° |
| 2026-05-04 16:04 | 37.47325 | -12.67524 | 38104 ft | 486 kts | 29° |
| 2026-05-04 16:05 | 37.52805 | -12.62621 | 38110 ft | 487 kts | 29° |
| 2026-05-04 16:06 | 37.61089 | -12.55194 | 38116 ft | 487 kts | 29° |
| 2026-05-04 16:07 | 37.72101 | -12.45273 | 38118 ft | 486 kts | 29° |
| 2026-05-04 16:08 | 37.83073 | -12.35373 | 38121 ft | 485 kts | 29° |
| 2026-05-04 16:09 | 37.96806 | -12.22904 | 38121 ft | 485 kts | 29° |
| 2026-05-04 16:10 | 38.07727 | -12.12937 | 38119 ft | 484 kts | 29° |
| 2026-05-04 16:11 | 38.18670 | -12.02955 | 38117 ft | 484 kts | 29° |
| 2026-05-04 16:12 | 38.35000 | -11.87947 | 38108 ft | 483 kts | 29° |
| 2026-05-04 16:13 | 38.45897 | -11.77869 | 38109 ft | 483 kts | 29° |
| 2026-05-04 16:14 | 38.56796 | -11.67767 | 38108 ft | 484 kts | 30° |
| 2026-05-04 16:16 | 38.70424 | -11.55087 | 38113 ft | 485 kts | 30° |
| 2026-05-04 16:17 | 38.84021 | -11.42373 | 38115 ft | 485 kts | 30° |
| 2026-05-04 16:18 | 38.94923 | -11.32126 | 38110 ft | 485 kts | 30° |
| 2026-05-04 16:19 | 39.08547 | -11.19268 | 38118 ft | 486 kts | 30° |
| 2026-05-04 16:20 | 39.22157 | -11.06376 | 38124 ft | 486 kts | 30° |
| 2026-05-04 16:22 | 39.35753 | -10.93407 | 38121 ft | 486 kts | 31° |
| 2026-05-04 16:23 | 39.52071 | -10.77769 | 38122 ft | 486 kts | 31° |
| 2026-05-04 16:25 | 39.68337 | -10.62096 | 38114 ft | 486 kts | 31° |
| 2026-05-04 16:26 | 39.87344 | -10.43674 | 38114 ft | 488 kts | 31° |
| 2026-05-04 16:28 | 40.00935 | -10.30403 | 38122 ft | 488 kts | 31° |
| 2026-05-04 16:28 | 40.09074 | -10.22434 | 37082 ft | 486 kts | 31° |
| 2026-05-04 16:29 | 40.19906 | -10.11757 | 33834 ft | 494 kts | 30° |
| 2026-05-04 16:30 | 40.28153 | -10.03644 | 31188 ft | 498 kts | 31° |
| 2026-05-04 16:31 | 40.33710 | -9.98138 | 29180 ft | 502 kts | 31° |
| 2026-05-04 16:31 | 40.41713 | -9.90172 | 27070 ft | 485 kts | 31° |
| 2026-05-04 16:32 | 40.49607 | -9.82291 | 25482 ft | 458 kts | 33° |
| 2026-05-04 16:33 | 40.53461 | -9.75853 | 24871 ft | 447 kts | 58° |
| 2026-05-04 16:33 | 40.56337 | -9.68691 | 23769 ft | 438 kts | 59° |
| 2026-05-04 16:34 | 40.59119 | -9.61638 | 22720 ft | 430 kts | 60° |
| 2026-05-04 16:34 | 40.60490 | -9.58163 | 22202 ft | 425 kts | 60° |
| 2026-05-04 16:35 | 40.64537 | -9.47951 | 20706 ft | 413 kts | 60° |
| 2026-05-04 16:35 | 40.68659 | -9.37553 | 17716 ft | 437 kts | 60° |
| 2026-05-04 16:36 | 40.70053 | -9.34014 | 17070 ft | 433 kts | 60° |
| 2026-05-04 16:36 | 40.72790 | -9.27043 | 15884 ft | 422 kts | 61° |
| 2026-05-04 16:37 | 40.75463 | -9.20241 | 14713 ft | 412 kts | 61° |
| 2026-05-04 16:37 | 40.76774 | -9.16903 | 14137 ft | 407 kts | 61° |
| 2026-05-04 16:37 | 40.78921 | -9.11415 | 13185 ft | 400 kts | 61° |
| 2026-05-04 16:38 | 40.81436 | -9.04966 | 12007 ft | 390 kts | 61° |
| 2026-05-04 16:39 | 40.85018 | -8.95780 | 10613 ft | 343 kts | 61° |
| 2026-05-04 16:39 | 40.87126 | -8.90348 | 9135 ft | 326 kts | 61° |
| 2026-05-04 16:40 | 40.89175 | -8.85078 | 7483 ft | 318 kts | 61° |
| 2026-05-04 16:40 | 40.91157 | -8.79952 | 5821 ft | 311 kts | 61° |
| 2026-05-04 16:41 | 40.93101 | -8.74931 | 4340 ft | 297 kts | 61° |
| 2026-05-04 16:41 | 40.95614 | -8.68404 | 4017 ft | 239 kts | 60° |
| 2026-05-04 16:42 | 40.98161 | -8.62731 | 3882 ft | 237 kts | 34° |
| 2026-05-04 16:43 | 41.01183 | -8.61901 | 3268 ft | 222 kts | 345° |
| 2026-05-04 16:43 | 41.04058 | -8.62688 | 3078 ft | 204 kts | 345° |
| 2026-05-04 16:43 | 41.05427 | -8.63051 | 3017 ft | 196 kts | 345° |
| 2026-05-04 16:44 | 41.10618 | -8.64414 | 2798 ft | 193 kts | 345° |
| 2026-05-04 16:45 | 41.13191 | -8.65090 | 2266 ft | 185 kts | 346° |
| 2026-05-04 16:46 | 41.16719 | -8.66007 | 1569 ft | 148 kts | 347° |
| 2026-05-04 16:46 | 41.18584 | -8.66488 | 1198 ft | 131 kts | 346° |
| 2026-05-04 16:47 | 41.20360 | -8.66952 | 847 ft | 129 kts | 346° |
| 2026-05-04 16:47 | 41.22120 | -8.67418 | 567 ft | 129 kts | 345° |
| 2026-05-04 16:48 | 41.24583 | -8.68067 | 243 ft | 90 kts | 349° |
| 2026-05-04 16:48 | 41.24945 | -8.68162 | 228 ft | 36 kts | 348° |
| 2026-05-04 16:49 | 41.25286 | -8.68092 | 214 ft | 14 kts | 43° |
| 2026-05-04 16:49 | 41.25216 | -8.68000 | 216 ft | 6 kts | 178° |
| 2026-05-04 16:50 | 41.25112 | -8.67976 | 222 ft | 18 kts | 168° |
| 2026-05-04 16:50 | 41.24919 | -8.67923 | 228 ft | 9 kts | 168° |
| 2026-05-04 16:51 | 41.24768 | -8.67838 | 236 ft | 19 kts | 154° |
| 2026-05-04 16:51 | 41.24672 | -8.67803 | 237 ft | 12 kts | 169° |
| 2026-05-04 16:51 | 41.24588 | -8.67781 | 239 ft | 3 kts | 168° |
| 2026-05-04 16:52 | 41.24510 | -8.67760 | 242 ft | 13 kts | 169° |
| 2026-05-04 16:52 | 41.24431 | -8.67740 | 244 ft | 10 kts | 169° |
| 2026-05-04 16:53 | 41.24251 | -8.67614 | 246 ft | 12 kts | 124° |
| 2026-05-04 16:53 | 41.24043 | -8.67532 | 251 ft | 21 kts | 168° |
| 2026-05-04 16:54 | 41.23901 | -8.67497 | 257 ft | 21 kts | 168° |
| 2026-05-04 16:55 | 41.23711 | -8.67444 | 258 ft | 0 kts | 169° |
| 2026-05-04 16:55 | 41.23708 | -8.67443 | 258 ft | 4 kts | 170° |
| 2026-05-04 16:56 | 41.23527 | -8.67396 | 262 ft | 14 kts | 167° |
| 2026-05-04 16:56 | 41.23363 | -8.67260 | 261 ft | 7 kts | 98° |
| 2026-05-04 16:57 | 41.23368 | -8.67194 | 260 ft | 5 kts | 79° |
| 2026-05-04 16:57 | 41.23375 | -8.67149 | 258 ft | 0 kts | 77° |